RYR3639 EPMO-EPKK
Flight info
| Callsign | RYR3639 |
|---|---|
| Flight time | 0h 47m |
| Altitude | 28000 |
| Route | EVINA M66 KUKAM |
| Aircraft | B738/M-SDE2E3FGHIRWXY/LB1 |
Departure
| Time | 2026-05-05 20:08 |
|---|---|
| Airport | Warsaw Modlin Airport (EPMO) |
Arrival
| Time | 2026-05-05 20:55 |
|---|---|
| Airport | Kraków John Paul II International Airport (EPKK) |
| Time | Latitude | Longitude | Altitude | Speed | Heading |
|---|---|---|---|---|---|
| 2026-05-05 19:30 | 52.44760 | 20.65422 | 357 ft | 0 kts | 207° |
| 2026-05-05 19:57 | 52.44772 | 20.65431 | 356 ft | 2 kts | 204° |
| 2026-05-05 19:57 | 52.44788 | 20.65440 | 352 ft | 2 kts | 192° |
| 2026-05-05 19:58 | 52.44804 | 20.65439 | 352 ft | 2 kts | 115° |
| 2026-05-05 19:58 | 52.44806 | 20.65421 | 357 ft | 1 kts | 83° |
| 2026-05-05 19:58 | 52.44806 | 20.65420 | 357 ft | 0 kts | 83° |
| 2026-05-05 20:03 | 52.44807 | 20.65442 | 358 ft | 5 kts | 83° |
| 2026-05-05 20:04 | 52.44814 | 20.65527 | 349 ft | 11 kts | 82° |
| 2026-05-05 20:04 | 52.44827 | 20.65676 | 351 ft | 16 kts | 79° |
| 2026-05-05 20:04 | 52.44849 | 20.65874 | 350 ft | 20 kts | 79° |
| 2026-05-05 20:04 | 52.44872 | 20.66118 | 351 ft | 22 kts | 80° |
| 2026-05-05 20:05 | 52.44893 | 20.66368 | 354 ft | 22 kts | 82° |
| 2026-05-05 20:05 | 52.44918 | 20.66637 | 349 ft | 26 kts | 80° |
| 2026-05-05 20:05 | 52.44947 | 20.66941 | 349 ft | 28 kts | 81° |
| 2026-05-05 20:05 | 52.44995 | 20.67108 | 354 ft | 9 kts | 7° |
| 2026-05-05 20:06 | 52.45064 | 20.67081 | 353 ft | 12 kts | 340° |
| 2026-05-05 20:06 | 52.45155 | 20.67039 | 351 ft | 15 kts | 346° |
| 2026-05-05 20:06 | 52.45262 | 20.66966 | 352 ft | 18 kts | 313° |
| 2026-05-05 20:06 | 52.45278 | 20.66853 | 351 ft | 2 kts | 257° |
| 2026-05-05 20:07 | 52.45277 | 20.66848 | 351 ft | 0 kts | 259° |
| 2026-05-05 20:07 | 52.45275 | 20.66824 | 353 ft | 20 kts | 261° |
| 2026-05-05 20:07 | 52.45210 | 20.66116 | 355 ft | 103 kts | 261° |
| 2026-05-05 20:08 | 52.45071 | 20.64552 | 357 ft | 170 kts | 265° |
| 2026-05-05 20:08 | 52.44885 | 20.62462 | 936 ft | 192 kts | 267° |
| 2026-05-05 20:08 | 52.44694 | 20.60233 | 1759 ft | 208 kts | 262° |
| 2026-05-05 20:08 | 52.44427 | 20.57828 | 2492 ft | 224 kts | 258° |
| 2026-05-05 20:09 | 52.44221 | 20.55166 | 2914 ft | 250 kts | 272° |
| 2026-05-05 20:09 | 52.44919 | 20.52429 | 3319 ft | 278 kts | 308° |
| 2026-05-05 20:09 | 52.46532 | 20.50687 | 3644 ft | 276 kts | 342° |
| 2026-05-05 20:09 | 52.48369 | 20.50713 | 3980 ft | 262 kts | 12° |
| 2026-05-05 20:10 | 52.50133 | 20.51363 | 3976 ft | 256 kts | 6° |
| 2026-05-05 20:10 | 52.51884 | 20.51608 | 3991 ft | 251 kts | 360° |
| 2026-05-05 20:10 | 52.53621 | 20.51617 | 3986 ft | 249 kts | 356° |
| 2026-05-05 20:10 | 52.55350 | 20.51525 | 4000 ft | 248 kts | 355° |
| 2026-05-05 20:11 | 52.57045 | 20.51398 | 4311 ft | 236 kts | 354° |
| 2026-05-05 20:11 | 52.58699 | 20.51380 | 4814 ft | 243 kts | 6° |
| 2026-05-05 20:11 | 52.60220 | 20.52583 | 5282 ft | 249 kts | 44° |
| 2026-05-05 20:11 | 52.61046 | 20.55002 | 5784 ft | 247 kts | 80° |
| 2026-05-05 20:12 | 52.61296 | 20.57828 | 6321 ft | 247 kts | 85° |
| 2026-05-05 20:12 | 52.61537 | 20.60645 | 6792 ft | 250 kts | 85° |
| 2026-05-05 20:12 | 52.61786 | 20.63488 | 7279 ft | 252 kts | 84° |
| 2026-05-05 20:12 | 52.62039 | 20.66313 | 7769 ft | 254 kts | 84° |
| 2026-05-05 20:13 | 52.62299 | 20.69192 | 8261 ft | 255 kts | 84° |
| 2026-05-05 20:13 | 52.62561 | 20.72083 | 8766 ft | 256 kts | 84° |
| 2026-05-05 20:13 | 52.62821 | 20.74986 | 9282 ft | 256 kts | 85° |
| 2026-05-05 20:13 | 52.62979 | 20.77889 | 9790 ft | 255 kts | 90° |
| 2026-05-05 20:14 | 52.63086 | 20.80806 | 10255 ft | 254 kts | 90° |
| 2026-05-05 20:14 | 52.63153 | 20.82726 | 10570 ft | 253 kts | 90° |
| 2026-05-05 20:14 | 52.63261 | 20.85613 | 11058 ft | 252 kts | 90° |
| 2026-05-05 20:14 | 52.63373 | 20.88489 | 11536 ft | 251 kts | 90° |
| 2026-05-05 20:15 | 52.63486 | 20.91338 | 12016 ft | 249 kts | 90° |
| 2026-05-05 20:15 | 52.63599 | 20.94178 | 12491 ft | 248 kts | 89° |
| 2026-05-05 20:15 | 52.63713 | 20.97060 | 12738 ft | 261 kts | 90° |
| 2026-05-05 20:15 | 52.63479 | 21.00078 | 12823 ft | 272 kts | 121° |
| 2026-05-05 20:16 | 52.62268 | 21.02385 | 13126 ft | 267 kts | 153° |
| 2026-05-05 20:16 | 52.60678 | 21.03986 | 13679 ft | 270 kts | 154° |
| 2026-05-05 20:16 | 52.59080 | 21.05656 | 14188 ft | 274 kts | 153° |
| 2026-05-05 20:16 | 52.57470 | 21.07358 | 14734 ft | 276 kts | 152° |
| 2026-05-05 20:17 | 52.55853 | 21.09078 | 15285 ft | 279 kts | 152° |
| 2026-05-05 20:17 | 52.54210 | 21.10828 | 15830 ft | 282 kts | 152° |
| 2026-05-05 20:17 | 52.52582 | 21.12565 | 16375 ft | 284 kts | 151° |
| 2026-05-05 20:17 | 52.50919 | 21.14340 | 16917 ft | 286 kts | 151° |
| 2026-05-05 20:18 | 52.49240 | 21.16133 | 17458 ft | 289 kts | 150° |
| 2026-05-05 20:18 | 52.47543 | 21.17944 | 17996 ft | 292 kts | 150° |
| 2026-05-05 20:18 | 52.45834 | 21.19766 | 18477 ft | 294 kts | 150° |
| 2026-05-05 20:18 | 52.44106 | 21.21606 | 18950 ft | 296 kts | 150° |
| 2026-05-05 20:19 | 52.42370 | 21.23452 | 19418 ft | 299 kts | 150° |
| 2026-05-05 20:19 | 52.40537 | 21.25043 | 19834 ft | 297 kts | 169° |
| 2026-05-05 20:19 | 52.38518 | 21.25188 | 20255 ft | 290 kts | 196° |
| 2026-05-05 20:19 | 52.36685 | 21.23913 | 20696 ft | 287 kts | 217° |
| 2026-05-05 20:20 | 52.35226 | 21.21683 | 20742 ft | 288 kts | 233° |
| 2026-05-05 20:20 | 52.34014 | 21.19100 | 20783 ft | 287 kts | 233° |
| 2026-05-05 20:20 | 52.32793 | 21.16522 | 20788 ft | 286 kts | 233° |
| 2026-05-05 20:20 | 52.31569 | 21.13962 | 20799 ft | 284 kts | 233° |
| 2026-05-05 20:21 | 52.30355 | 21.11441 | 21095 ft | 282 kts | 233° |
| 2026-05-05 20:21 | 52.29148 | 21.08947 | 21332 ft | 286 kts | 232° |
| 2026-05-05 20:21 | 52.27900 | 21.06385 | 21607 ft | 290 kts | 232° |
| 2026-05-05 20:21 | 52.26631 | 21.03789 | 21878 ft | 293 kts | 232° |
| 2026-05-05 20:22 | 52.25307 | 21.01245 | 22130 ft | 295 kts | 226° |
| 2026-05-05 20:22 | 52.23807 | 20.98946 | 22405 ft | 296 kts | 223° |
| 2026-05-05 20:22 | 52.22250 | 20.96730 | 22669 ft | 297 kts | 221° |
| 2026-05-05 20:22 | 52.20512 | 20.94885 | 22905 ft | 300 kts | 206° |
| 2026-05-05 20:23 | 52.18606 | 20.93532 | 23335 ft | 295 kts | 206° |
| 2026-05-05 20:23 | 52.16743 | 20.92217 | 23791 ft | 291 kts | 206° |
| 2026-05-05 20:23 | 52.14896 | 20.90899 | 24248 ft | 288 kts | 206° |
| 2026-05-05 20:23 | 52.13066 | 20.89583 | 24673 ft | 287 kts | 206° |
| 2026-05-05 20:24 | 52.11202 | 20.88230 | 24702 ft | 301 kts | 206° |
| 2026-05-05 20:24 | 52.09259 | 20.86815 | 24852 ft | 310 kts | 206° |
| 2026-05-05 20:24 | 52.07276 | 20.85369 | 25172 ft | 312 kts | 206° |
| 2026-05-05 20:24 | 52.05320 | 20.83943 | 25565 ft | 313 kts | 206° |
| 2026-05-05 20:25 | 52.03332 | 20.82491 | 25933 ft | 314 kts | 206° |
| 2026-05-05 20:25 | 52.01329 | 20.81029 | 26271 ft | 316 kts | 206° |
| 2026-05-05 20:25 | 51.99318 | 20.79562 | 26670 ft | 316 kts | 206° |
| 2026-05-05 20:25 | 51.97323 | 20.78107 | 27129 ft | 314 kts | 206° |
| 2026-05-05 20:26 | 51.95335 | 20.76659 | 27531 ft | 313 kts | 206° |
| 2026-05-05 20:26 | 51.93348 | 20.75211 | 27797 ft | 315 kts | 206° |
| 2026-05-05 20:26 | 51.91310 | 20.73725 | 27776 ft | 325 kts | 206° |
| 2026-05-05 20:26 | 51.89223 | 20.72206 | 27793 ft | 334 kts | 206° |
| 2026-05-05 20:27 | 51.87083 | 20.70650 | 27790 ft | 338 kts | 206° |
| 2026-05-05 20:27 | 51.84944 | 20.69099 | 27771 ft | 336 kts | 206° |
| 2026-05-05 20:27 | 51.82810 | 20.67553 | 27781 ft | 335 kts | 206° |
| 2026-05-05 20:27 | 51.80684 | 20.66015 | 27773 ft | 334 kts | 206° |
| 2026-05-05 20:28 | 51.78565 | 20.64483 | 27771 ft | 333 kts | 206° |
| 2026-05-05 20:28 | 51.76457 | 20.62961 | 27771 ft | 332 kts | 206° |
| 2026-05-05 20:28 | 51.74348 | 20.61438 | 27784 ft | 335 kts | 206° |
| 2026-05-05 20:28 | 51.72194 | 20.59883 | 27800 ft | 344 kts | 206° |
| 2026-05-05 20:29 | 51.69984 | 20.58288 | 27806 ft | 353 kts | 206° |
| 2026-05-05 20:29 | 51.67705 | 20.56647 | 27798 ft | 363 kts | 206° |
| 2026-05-05 20:29 | 51.65369 | 20.54967 | 27801 ft | 372 kts | 206° |
| 2026-05-05 20:29 | 51.62978 | 20.53250 | 27805 ft | 381 kts | 205° |
| 2026-05-05 20:30 | 51.60523 | 20.51489 | 27804 ft | 390 kts | 205° |
| 2026-05-05 20:30 | 51.58027 | 20.49702 | 27802 ft | 398 kts | 205° |
| 2026-05-05 20:30 | 51.55503 | 20.47897 | 27798 ft | 404 kts | 205° |
| 2026-05-05 20:30 | 51.52934 | 20.46062 | 27777 ft | 404 kts | 205° |
| 2026-05-05 20:31 | 51.50371 | 20.44234 | 27779 ft | 403 kts | 205° |
| 2026-05-05 20:31 | 51.47809 | 20.42408 | 27779 ft | 402 kts | 205° |
| 2026-05-05 20:31 | 51.45259 | 20.40591 | 27778 ft | 401 kts | 205° |
| 2026-05-05 20:31 | 51.42700 | 20.38771 | 27784 ft | 400 kts | 205° |
| 2026-05-05 20:32 | 51.40151 | 20.36961 | 27784 ft | 400 kts | 205° |
| 2026-05-05 20:32 | 51.37584 | 20.35233 | 27787 ft | 399 kts | 202° |
| 2026-05-05 20:32 | 51.34961 | 20.33774 | 27796 ft | 399 kts | 199° |
| 2026-05-05 20:32 | 51.32311 | 20.32435 | 27800 ft | 399 kts | 199° |
| 2026-05-05 20:33 | 51.29655 | 20.31124 | 27795 ft | 399 kts | 199° |
| 2026-05-05 20:33 | 51.27004 | 20.29805 | 27799 ft | 399 kts | 199° |
| 2026-05-05 20:33 | 51.24356 | 20.28471 | 27799 ft | 399 kts | 199° |
| 2026-05-05 20:33 | 51.21704 | 20.27117 | 27800 ft | 400 kts | 199° |
| 2026-05-05 20:34 | 51.19049 | 20.25753 | 27799 ft | 400 kts | 199° |
| 2026-05-05 20:34 | 51.16439 | 20.24407 | 27802 ft | 401 kts | 199° |
| 2026-05-05 20:34 | 51.13781 | 20.23036 | 27807 ft | 401 kts | 199° |
| 2026-05-05 20:34 | 51.11119 | 20.21663 | 27804 ft | 402 kts | 199° |
| 2026-05-05 20:35 | 51.08458 | 20.20293 | 27807 ft | 402 kts | 199° |
| 2026-05-05 20:35 | 51.05790 | 20.18921 | 27806 ft | 403 kts | 199° |
| 2026-05-05 20:35 | 51.03122 | 20.17550 | 27806 ft | 403 kts | 199° |
| 2026-05-05 20:35 | 51.00453 | 20.16182 | 27807 ft | 403 kts | 199° |
| 2026-05-05 20:36 | 50.97780 | 20.14812 | 27807 ft | 403 kts | 199° |
| 2026-05-05 20:36 | 50.95114 | 20.13447 | 27807 ft | 403 kts | 199° |
| 2026-05-05 20:36 | 50.92435 | 20.12079 | 27817 ft | 407 kts | 199° |
| 2026-05-05 20:36 | 50.89716 | 20.10695 | 27825 ft | 415 kts | 199° |
| 2026-05-05 20:37 | 50.86954 | 20.09300 | 27812 ft | 416 kts | 199° |
| 2026-05-05 20:37 | 50.84246 | 20.07938 | 27788 ft | 401 kts | 199° |
| 2026-05-05 20:37 | 50.81663 | 20.06641 | 27789 ft | 387 kts | 198° |
| 2026-05-05 20:37 | 50.79045 | 20.05812 | 27792 ft | 374 kts | 184° |
| 2026-05-05 20:38 | 50.76517 | 20.05743 | 27808 ft | 361 kts | 182° |
| 2026-05-05 20:38 | 50.74052 | 20.05692 | 27801 ft | 348 kts | 182° |
| 2026-05-05 20:38 | 50.71639 | 20.05620 | 27162 ft | 352 kts | 183° |
| 2026-05-05 20:38 | 50.69140 | 20.05522 | 26428 ft | 355 kts | 183° |
| 2026-05-05 20:39 | 50.66686 | 20.05413 | 25684 ft | 359 kts | 183° |
| 2026-05-05 20:39 | 50.64148 | 20.05294 | 24962 ft | 362 kts | 183° |
| 2026-05-05 20:39 | 50.61650 | 20.05174 | 24268 ft | 364 kts | 183° |
| 2026-05-05 20:39 | 50.59111 | 20.05050 | 23584 ft | 366 kts | 183° |
| 2026-05-05 20:40 | 50.56565 | 20.04926 | 22807 ft | 367 kts | 183° |
| 2026-05-05 20:40 | 50.54004 | 20.04802 | 22020 ft | 368 kts | 183° |
| 2026-05-05 20:40 | 50.51438 | 20.04677 | 21239 ft | 368 kts | 183° |
| 2026-05-05 20:40 | 50.48874 | 20.04553 | 20481 ft | 368 kts | 183° |
| 2026-05-05 20:41 | 50.46316 | 20.04429 | 19684 ft | 368 kts | 183° |
| 2026-05-05 20:41 | 50.43739 | 20.04294 | 18707 ft | 373 kts | 183° |
| 2026-05-05 20:41 | 50.41132 | 20.04140 | 17729 ft | 375 kts | 183° |
| 2026-05-05 20:41 | 50.38516 | 20.03982 | 16684 ft | 377 kts | 183° |
| 2026-05-05 20:42 | 50.35897 | 20.03826 | 15677 ft | 376 kts | 183° |
| 2026-05-05 20:42 | 50.33281 | 20.03672 | 14689 ft | 377 kts | 182° |
| 2026-05-05 20:42 | 50.30652 | 20.03519 | 13742 ft | 378 kts | 182° |
| 2026-05-05 20:42 | 50.28023 | 20.03631 | 12679 ft | 380 kts | 171° |
| 2026-05-05 20:43 | 50.25604 | 20.05166 | 11664 ft | 386 kts | 146° |
| 2026-05-05 20:43 | 50.23778 | 20.08255 | 10696 ft | 392 kts | 123° |
| 2026-05-05 20:43 | 50.22700 | 20.12186 | 9825 ft | 396 kts | 108° |
| 2026-05-05 20:43 | 50.22216 | 20.16349 | 9421 ft | 384 kts | 95° |
| 2026-05-05 20:44 | 50.22443 | 20.20415 | 9164 ft | 370 kts | 81° |
| 2026-05-05 20:44 | 50.22861 | 20.24265 | 9014 ft | 351 kts | 84° |
| 2026-05-05 20:44 | 50.23252 | 20.28040 | 8071 ft | 358 kts | 83° |
| 2026-05-05 20:44 | 50.23677 | 20.31922 | 7215 ft | 364 kts | 82° |
| 2026-05-05 20:45 | 50.24456 | 20.39621 | 5965 ft | 354 kts | 94° |
| 2026-05-05 20:45 | 50.24001 | 20.43405 | 4813 ft | 360 kts | 113° |
| 2026-05-05 20:45 | 50.22884 | 20.46706 | 4757 ft | 328 kts | 135° |
| 2026-05-05 20:46 | 50.21133 | 20.48613 | 4786 ft | 293 kts | 166° |
| 2026-05-05 20:46 | 50.19236 | 20.48714 | 4812 ft | 262 kts | 200° |
| 2026-05-05 20:46 | 50.17794 | 20.47240 | 4813 ft | 241 kts | 223° |
| 2026-05-05 20:46 | 50.16596 | 20.45533 | 4727 ft | 228 kts | 222° |
| 2026-05-05 20:47 | 50.15512 | 20.43815 | 4668 ft | 212 kts | 236° |
| 2026-05-05 20:47 | 50.15088 | 20.41679 | 4706 ft | 213 kts | 269° |
| 2026-05-05 20:47 | 50.15247 | 20.39446 | 4806 ft | 199 kts | 268° |
| 2026-05-05 20:47 | 50.15266 | 20.37369 | 4803 ft | 185 kts | 263° |
| 2026-05-05 20:48 | 50.15211 | 20.35469 | 4938 ft | 171 kts | 261° |
| 2026-05-05 20:48 | 50.15086 | 20.33592 | 4899 ft | 176 kts | 257° |
| 2026-05-05 20:48 | 50.14909 | 20.31715 | 4894 ft | 173 kts | 256° |
| 2026-05-05 20:48 | 50.14709 | 20.29885 | 4899 ft | 170 kts | 255° |
| 2026-05-05 20:49 | 50.14495 | 20.28060 | 4961 ft | 173 kts | 254° |
| 2026-05-05 20:49 | 50.14255 | 20.26202 | 5006 ft | 177 kts | 254° |
| 2026-05-05 20:49 | 50.14010 | 20.24352 | 4913 ft | 173 kts | 248° |
| 2026-05-05 20:49 | 50.13757 | 20.22455 | 4494 ft | 186 kts | 255° |
| 2026-05-05 20:50 | 50.13509 | 20.20329 | 4090 ft | 210 kts | 255° |
| 2026-05-05 20:50 | 50.13247 | 20.18035 | 3540 ft | 212 kts | 256° |
| 2026-05-05 20:50 | 50.13001 | 20.15808 | 3755 ft | 210 kts | 255° |
| 2026-05-05 20:50 | 50.12701 | 20.13568 | 3975 ft | 218 kts | 251° |
| 2026-05-05 20:51 | 50.12288 | 20.11206 | 4152 ft | 234 kts | 251° |
| 2026-05-05 20:51 | 50.11886 | 20.08791 | 4053 ft | 231 kts | 254° |
| 2026-05-05 20:51 | 50.11615 | 20.06265 | 3984 ft | 235 kts | 256° |
| 2026-05-05 20:51 | 50.11317 | 20.03791 | 3776 ft | 234 kts | 254° |
| 2026-05-05 20:52 | 50.10974 | 20.01321 | 3480 ft | 233 kts | 253° |
| 2026-05-05 20:52 | 50.10624 | 19.98860 | 3182 ft | 231 kts | 254° |
| 2026-05-05 20:52 | 50.10281 | 19.96420 | 2886 ft | 231 kts | 253° |
| 2026-05-05 20:52 | 50.09934 | 19.93960 | 2594 ft | 233 kts | 253° |
| 2026-05-05 20:53 | 50.09594 | 19.91536 | 2278 ft | 222 kts | 254° |
| 2026-05-05 20:53 | 50.09281 | 19.89285 | 1982 ft | 204 kts | 254° |
| 2026-05-05 20:53 | 50.08990 | 19.87212 | 1723 ft | 188 kts | 255° |
| 2026-05-05 20:53 | 50.08724 | 19.85310 | 1526 ft | 169 kts | 256° |
| 2026-05-05 20:54 | 50.08678 | 19.84980 | 1478 ft | 165 kts | 256° |
| 2026-05-05 20:54 | 50.08675 | 19.84961 | 1470 ft | 165 kts | 256° |
| 2026-05-05 20:54 | 50.08438 | 19.83285 | 1215 ft | 152 kts | 256° |
| 2026-05-05 20:55 | 50.08206 | 19.81709 | 1091 ft | 152 kts | 259° |
| 2026-05-05 20:55 | 50.08003 | 19.80093 | 875 ft | 152 kts | 255° |
| 2026-05-05 20:55 | 50.07778 | 19.78559 | 789 ft | 117 kts | 257° |
| 2026-05-05 20:55 | 50.07693 | 19.77958 | 787 ft | 36 kts | 257° |
| 2026-05-05 20:56 | 50.07644 | 19.77593 | 789 ft | 32 kts | 259° |
| 2026-05-05 20:56 | 50.07604 | 19.77273 | 791 ft | 29 kts | 259° |
| 2026-05-05 20:56 | 50.07564 | 19.76972 | 794 ft | 28 kts | 255° |
| 2026-05-05 20:56 | 50.07459 | 19.76851 | 792 ft | 19 kts | 171° |
| 2026-05-05 20:57 | 50.07328 | 19.76909 | 789 ft | 20 kts | 135° |
| 2026-05-05 20:57 | 50.07335 | 19.77107 | 789 ft | 19 kts | 82° |
| 2026-05-05 20:57 | 50.07349 | 19.77304 | 788 ft | 18 kts | 72° |
| 2026-05-05 20:57 | 50.07384 | 19.77492 | 788 ft | 18 kts | 74° |
| 2026-05-05 20:58 | 50.07409 | 19.77676 | 788 ft | 17 kts | 82° |
| 2026-05-05 20:58 | 50.07432 | 19.77854 | 788 ft | 17 kts | 78° |
| 2026-05-05 20:58 | 50.07455 | 19.78026 | 788 ft | 16 kts | 78° |
| 2026-05-05 20:58 | 50.07477 | 19.78193 | 788 ft | 16 kts | 78° |
| 2026-05-05 20:59 | 50.07502 | 19.78375 | 788 ft | 18 kts | 77° |
| 2026-05-05 20:59 | 50.07533 | 19.78575 | 788 ft | 20 kts | 77° |
| 2026-05-05 20:59 | 50.07563 | 19.78793 | 788 ft | 21 kts | 78° |
| 2026-05-05 20:59 | 50.07594 | 19.79027 | 788 ft | 23 kts | 78° |
| 2026-05-05 21:00 | 50.07628 | 19.79265 | 788 ft | 22 kts | 77° |
| 2026-05-05 21:00 | 50.07660 | 19.79498 | 788 ft | 22 kts | 78° |
| 2026-05-05 21:00 | 50.07673 | 19.79689 | 788 ft | 12 kts | 119° |
| 2026-05-05 21:00 | 50.07638 | 19.79807 | 788 ft | 12 kts | 85° |
| 2026-05-05 21:01 | 50.07660 | 19.79870 | 788 ft | 9 kts | 36° |
| 2026-05-05 21:01 | 50.07718 | 19.79914 | 788 ft | 10 kts | 44° |
| 2026-05-05 21:01 | 50.07734 | 19.80026 | 788 ft | 13 kts | 102° |
| 2026-05-05 21:01 | 50.07646 | 19.80091 | 788 ft | 11 kts | 165° |
| 2026-05-05 21:02 | 50.07619 | 19.80135 | 788 ft | 7 kts | 109° |
| 2026-05-05 21:02 | 50.07637 | 19.80208 | 788 ft | 8 kts | 42° |
| 2026-05-05 21:02 | 50.07656 | 19.80214 | 788 ft | 4 kts | 355° |
| 2026-05-05 21:02 | 50.07696 | 19.80205 | 788 ft | 0 kts | 347° |